Terminal Aerodrome Forecast
Issued by NWS Cleveland, OH

Home | Current Version | Previous Version | Graphics & Text | Print | Product List | Glossary On
Versions: 1 2 3 4 5 6 7 8 9 10 11 12 13 14 15 16 17 18 19 20 21 22 23 24
000
FTUS41 KCLE 181100
TAFCLE
TAF
KCLE 181134Z 1812/1918 26010KT P6SM OVC025
      TEMPO 1812/1814 -SHSN
     FM190000 27010KT P6SM OVC035
     FM190400 27005KT P6SM VCSH OVC025=

USA.gov is the U.S. government's official web portal to all federal, state and local government web resources and services.